Time,TemperatureF,DewpointF,PressureIn,WindDirection,WindDirectionDegrees,WindSpeedMPH,WindSpeedGustMPH,Humidity,HourlyPrecipIn,Conditions,Clouds,dailyrainin,SoftwareType,DateUTC
2013-03-12 00:00:00,50.0,46.9,30.23,SE,135,0.4,1.8,89,0.00,,,0.00,WUHU216HW,2013-03-12 07:00:00,
2013-03-12 00:05:00,49.7,46.3,30.22,SE,135,0.0,1.3,88,0.00,,,0.00,WUHU216HW,2013-03-12 07:05:00,
2013-03-12 00:10:00,49.5,46.1,30.22,SE,135,0.4,1.1,88,0.00,,,0.00,WUHU216HW,2013-03-12 07:10:00,
2013-03-12 00:15:00,49.3,45.9,30.22,SSE,158,1.1,1.1,88,0.00,,,0.00,WUHU216HW,2013-03-12 07:15:00,
2013-03-12 00:20:00,49.1,46.4,30.22,SSE,158,1.1,1.6,90,0.00,,,0.00,WUHU216HW,2013-03-12 07:20:00,
2013-03-12 00:25:00,49.0,45.9,30.22,SSE,158,0.2,1.8,89,0.00,,,0.00,WUHU216HW,2013-03-12 07:25:00,
2013-03-12 00:30:00,48.8,46.3,30.21,SSE,158,0.7,1.8,91,0.00,,,0.00,WUHU216HW,2013-03-12 07:30:00,
2013-03-12 00:35:00,48.8,46.3,30.21,SE,135,1.1,1.6,91,0.00,,,0.00,WUHU216HW,2013-03-12 07:35:00,
2013-03-12 00:40:00,48.6,46.2,30.21,SSE,158,0.7,2.2,91,0.00,,,0.00,WUHU216HW,2013-03-12 07:40:00,
2013-03-12 00:45:00,48.6,46.2,30.20,South,180,1.3,2.2,91,0.00,,,0.00,WUHU216HW,2013-03-12 07:45:00,
2013-03-12 00:50:00,48.4,45.7,30.20,South,180,1.1,1.8,90,0.00,,,0.00,WUHU216HW,2013-03-12 07:50:00,
2013-03-12 00:55:00,48.4,45.7,30.21,SSW,203,0.7,1.3,90,0.00,,,0.00,WUHU216HW,2013-03-12 07:55:00,
2013-03-12 01:00:00,48.4,45.4,30.21,SW,225,0.0,1.3,89,0.00,,,0.00,WUHU216HW,2013-03-12 08:00:00,
2013-03-12 01:05:00,48.2,45.2,30.21,WSW,248,0.0,1.3,89,0.00,,,0.00,WUHU216HW,2013-03-12 08:05:00,
2013-03-12 01:10:00,48.1,45.0,30.21,SW,225,1.8,1.8,89,0.00,,,0.00,WUHU216HW,2013-03-12 08:10:00,
2013-03-12 01:15:00,48.1,45.0,30.21,SW,225,0.0,2.2,89,0.00,,,0.00,WUHU216HW,2013-03-12 08:15:00,
2013-03-12 01:20:00,47.9,45.2,30.20,SW,225,0.7,2.2,90,0.00,,,0.00,WUHU216HW,2013-03-12 08:20:00,
2013-03-12 01:25:00,47.9,45.5,30.20,SSE,158,0.7,1.1,91,0.00,,,0.00,WUHU216HW,2013-03-12 08:25:00,
2013-03-12 01:30:00,47.7,45.3,30.20,SE,135,1.1,1.1,91,0.00,,,0.00,WUHU216HW,2013-03-12 08:30:00,
2013-03-12 01:35:00,47.5,44.8,30.20,SE,135,0.2,1.1,90,0.00,,,0.00,WUHU216HW,2013-03-12 08:35:00,
2013-03-12 01:40:00,47.3,44.6,30.20,SE,135,0.0,0.9,90,0.00,,,0.00,WUHU216HW,2013-03-12 08:40:00,
2013-03-12 01:45:00,47.2,44.5,30.20,SE,135,0.0,0.2,90,0.00,,,0.00,WUHU216HW,2013-03-12 08:45:00,
2013-03-12 01:50:00,47.2,44.5,30.20,SE,135,0.0,0.0,90,0.00,,,0.00,WUHU216HW,2013-03-12 08:50:00,
2013-03-12 01:55:00,47.0,44.3,30.20,SE,135,0.0,0.0,90,0.00,,,0.00,WUHU216HW,2013-03-12 08:55:00,
2013-03-12 02:00:00,46.6,43.7,30.20,SSW,203,0.0,0.0,89,0.00,,,0.00,WUHU216HW,2013-03-12 09:00:00,
2013-03-12 02:05:00,46.4,43.7,30.19,SSW,203,0.0,0.0,90,0.00,,,0.00,WUHU216HW,2013-03-12 09:05:00,
2013-03-12 02:10:00,46.1,43.4,30.19,SSW,203,0.0,0.0,90,0.00,,,0.00,WUHU216HW,2013-03-12 09:10:00,
2013-03-12 02:15:00,46.1,43.4,30.19,SSW,203,0.0,0.0,90,0.00,,,0.00,WUHU216HW,2013-03-12 09:15:00,
2013-03-12 02:20:00,45.7,43.0,30.19,SSW,203,0.0,0.0,90,0.00,,,0.00,WUHU216HW,2013-03-12 09:20:00,
2013-03-12 02:25:00,45.7,43.3,30.19,SSW,203,0.4,0.7,91,0.00,,,0.00,WUHU216HW,2013-03-12 09:25:00,
2013-03-12 02:30:00,45.5,43.1,30.19,SSW,203,0.0,0.7,91,0.00,,,0.00,WUHU216HW,2013-03-12 09:30:00,
2013-03-12 02:35:00,45.4,42.9,30.19,SSW,203,0.0,0.4,91,0.00,,,0.00,WUHU216HW,2013-03-12 09:35:00,
2013-03-12 02:40:00,45.4,42.9,30.19,SSW,203,0.0,0.0,91,0.00,,,0.00,WUHU216HW,2013-03-12 09:40:00,
2013-03-12 02:45:00,45.4,42.9,30.19,South,180,0.0,0.0,91,0.00,,,0.00,WUHU216HW,2013-03-12 09:45:00,
2013-03-12 02:50:00,45.2,42.8,30.20,South,180,0.0,0.0,91,0.00,,,0.00,WUHU216HW,2013-03-12 09:50:00,
2013-03-12 02:55:00,45.0,42.6,30.20,South,180,0.0,0.2,91,0.00,,,0.00,WUHU216HW,2013-03-12 09:55:00,
2013-03-12 03:00:00,45.0,42.6,30.19,South,180,0.0,0.2,91,0.00,,,0.00,WUHU216HW,2013-03-12 10:00:00,
2013-03-12 03:05:00,44.8,42.4,30.19,South,180,0.0,0.2,91,0.00,,,0.00,WUHU216HW,2013-03-12 10:05:00,
2013-03-12 03:10:00,44.6,42.2,30.19,South,180,0.0,0.0,91,0.00,,,0.00,WUHU216HW,2013-03-12 10:10:00,
2013-03-12 03:15:00,44.5,41.8,30.19,South,180,0.0,0.0,90,0.00,,,0.00,WUHU216HW,2013-03-12 10:15:00,
2013-03-12 03:20:00,44.6,41.9,30.20,South,180,0.0,0.0,90,0.00,,,0.00,WUHU216HW,2013-03-12 10:20:00,
2013-03-12 03:25:00,44.6,42.2,30.20,South,180,0.0,0.0,91,0.00,,,0.00,WUHU216HW,2013-03-12 10:25:00,
2013-03-12 03:30:00,44.8,42.4,30.20,South,180,0.4,0.9,91,0.00,,,0.00,WUHU216HW,2013-03-12 10:30:00,
2013-03-12 03:35:00,45.0,43.1,30.20,SSE,158,0.0,1.1,93,0.00,,,0.00,WUHU216HW,2013-03-12 10:35:00,
2013-03-12 03:40:00,45.2,43.3,30.19,SSE,158,0.7,1.3,93,0.00,,,0.00,WUHU216HW,2013-03-12 10:40:00,
2013-03-12 03:45:00,45.2,43.3,30.19,SSE,158,0.0,1.3,93,0.00,,,0.00,WUHU216HW,2013-03-12 10:45:00,
2013-03-12 03:50:00,45.0,43.1,30.18,SSE,158,0.0,0.7,93,0.00,,,0.00,WUHU216HW,2013-03-12 10:50:00,
2013-03-12 03:55:00,45.0,42.8,30.18,SSE,158,0.0,0.0,92,0.00,,,0.00,WUHU216HW,2013-03-12 10:55:00,
2013-03-12 04:00:00,44.8,42.7,30.17,SE,135,0.9,1.6,92,0.00,,,0.00,WUHU216HW,2013-03-12 11:00:00,
2013-03-12 04:05:00,44.6,42.5,30.18,SE,135,0.4,1.6,92,0.00,,,0.00,WUHU216HW,2013-03-12 11:05:00,
2013-03-12 04:10:00,44.3,41.9,30.18,SE,135,0.9,1.3,91,0.00,,,0.00,WUHU216HW,2013-03-12 11:10:00,
2013-03-12 04:15:00,44.3,41.9,30.18,SE,135,0.4,1.1,91,0.00,,,0.00,WUHU216HW,2013-03-12 11:15:00,
2013-03-12 04:20:00,44.3,42.1,30.18,SE,135,0.9,1.8,92,0.00,,,0.00,WUHU216HW,2013-03-12 11:20:00,
2013-03-12 04:25:00,44.3,42.4,30.17,SE,135,0.4,1.8,93,0.00,,,0.00,WUHU216HW,2013-03-12 11:25:00,
2013-03-12 04:30:00,44.3,42.4,30.17,SE,135,0.9,1.3,93,0.00,,,0.00,WUHU216HW,2013-03-12 11:30:00,
2013-03-12 04:35:00,43.9,42.0,30.16,SE,135,0.0,1.3,93,0.00,,,0.00,WUHU216HW,2013-03-12 11:35:00,
2013-03-12 04:40:00,43.9,42.0,30.16,SE,135,0.0,1.1,93,0.00,,,0.00,WUHU216HW,2013-03-12 11:40:00,
2013-03-12 04:45:00,43.9,42.0,30.17,SE,135,0.0,0.4,93,0.00,,,0.00,WUHU216HW,2013-03-12 11:45:00,
2013-03-12 04:50:00,43.7,41.6,30.17,SE,135,0.7,0.7,92,0.00,,,0.00,WUHU216HW,2013-03-12 11:50:00,
2013-03-12 04:55:00,43.7,41.6,30.17,SE,135,0.7,0.9,92,0.00,,,0.00,WUHU216HW,2013-03-12 11:55:00,
2013-03-12 05:00:00,43.7,41.6,30.18,SSE,158,0.0,0.9,92,0.00,,,0.00,WUHU216HW,2013-03-12 12:00:00,
2013-03-12 05:05:00,44.1,41.9,30.18,South,180,0.9,1.1,92,0.00,,,0.00,WUHU216HW,2013-03-12 12:05:00,
2013-03-12 05:10:00,44.5,42.3,30.19,South,180,1.8,2.5,92,0.00,,,0.00,WUHU216HW,2013-03-12 12:10:00,
2013-03-12 05:15:00,45.2,43.6,30.18,SE,135,1.8,2.5,94,0.00,,,0.00,WUHU216HW,2013-03-12 12:15:00,
2013-03-12 05:20:00,45.4,44.0,30.18,SE,135,0.0,2.5,95,0.00,,,0.00,WUHU216HW,2013-03-12 12:20:00,
2013-03-12 05:25:00,45.5,44.2,30.18,SE,135,1.1,2.5,95,0.00,,,0.00,WUHU216HW,2013-03-12 12:25:00,
2013-03-12 05:30:00,45.7,44.4,30.17,SE,135,0.0,1.8,95,0.00,,,0.00,WUHU216HW,2013-03-12 12:30:00,
2013-03-12 05:35:00,45.7,44.4,30.17,SE,135,0.7,1.8,95,0.00,,,0.00,WUHU216HW,2013-03-12 12:35:00,
2013-03-12 05:40:00,46.1,44.7,30.17,SE,135,1.8,2.0,95,0.00,,,0.00,WUHU216HW,2013-03-12 12:40:00,
2013-03-12 05:45:00,46.3,44.9,30.18,SE,135,1.1,2.0,95,0.00,,,0.00,WUHU216HW,2013-03-12 12:45:00,
2013-03-12 05:50:00,46.4,45.1,30.18,SSE,158,1.8,2.5,95,0.00,,,0.00,WUHU216HW,2013-03-12 12:50:00,
2013-03-12 05:55:00,46.4,45.1,30.18,SSE,158,2.9,3.4,95,0.00,,,0.00,WUHU216HW,2013-03-12 12:55:00,
2013-03-12 06:00:00,46.8,45.5,30.17,SSE,158,2.5,3.6,95,0.00,,,0.00,WUHU216HW,2013-03-12 13:00:00,
2013-03-12 06:05:00,47.0,45.4,30.18,SSW,203,1.8,4.0,94,0.00,,,0.00,WUHU216HW,2013-03-12 13:05:00,
2013-03-12 06:10:00,47.0,45.6,30.18,South,180,1.8,4.0,95,0.00,,,0.00,WUHU216HW,2013-03-12 13:10:00,
2013-03-12 06:15:00,47.2,45.8,30.18,SSE,158,1.8,3.4,95,0.00,,,0.00,WUHU216HW,2013-03-12 13:15:00,
2013-03-12 06:20:00,47.2,45.8,30.18,SSE,158,2.5,2.5,95,0.00,,,0.00,WUHU216HW,2013-03-12 13:20:00,
2013-03-12 06:25:00,47.3,46.0,30.17,South,180,2.5,3.4,95,0.00,,,0.00,WUHU216HW,2013-03-12 13:25:00,
2013-03-12 06:30:00,47.3,46.0,30.17,SSE,158,2.9,4.5,95,0.00,,,0.00,WUHU216HW,2013-03-12 13:30:00,
2013-03-12 06:35:00,47.5,46.2,30.17,SSE,158,3.1,6.3,95,0.00,,,0.00,WUHU216HW,2013-03-12 13:35:00,
2013-03-12 06:40:00,47.5,45.9,30.17,SSE,158,4.0,6.3,94,0.00,,,0.00,WUHU216HW,2013-03-12 13:40:00,
2013-03-12 06:45:00,47.5,45.9,30.17,SSE,158,2.9,4.7,94,0.00,,,0.00,WUHU216HW,2013-03-12 13:45:00,
2013-03-12 06:50:00,47.7,46.1,30.17,South,180,2.7,4.7,94,0.00,,,0.00,WUHU216HW,2013-03-12 13:50:00,
2013-03-12 06:55:00,47.7,46.1,30.17,SSW,203,1.8,5.4,94,0.00,,,0.00,WUHU216HW,2013-03-12 13:55:00,
2013-03-12 07:00:00,47.9,46.3,30.17,SSW,203,3.4,5.4,94,0.00,,,0.00,WUHU216HW,2013-03-12 14:00:00,
2013-03-12 07:05:00,47.9,46.3,30.18,South,180,3.6,5.4,94,0.00,,,0.00,WUHU216HW,2013-03-12 14:05:00,
2013-03-12 07:10:00,48.1,46.4,30.18,South,180,1.8,5.4,94,0.00,,,0.00,WUHU216HW,2013-03-12 14:10:00,
2013-03-12 07:15:00,48.2,46.6,30.17,SSW,203,1.8,4.0,94,0.00,,,0.00,WUHU216HW,2013-03-12 14:15:00,
2013-03-12 07:20:00,48.4,46.8,30.17,SE,135,1.3,3.6,94,0.00,,,0.00,WUHU216HW,2013-03-12 14:20:00,
2013-03-12 07:25:00,48.4,46.8,30.17,SSW,203,1.3,2.7,94,0.00,,,0.00,WUHU216HW,2013-03-12 14:25:00,
2013-03-12 07:30:00,48.6,47.0,30.17,South,180,0.9,2.9,94,0.00,,,0.00,WUHU216HW,2013-03-12 14:30:00,
2013-03-12 07:35:00,48.6,47.0,30.17,SSE,158,1.1,2.9,94,0.00,,,0.00,WUHU216HW,2013-03-12 14:35:00,
2013-03-12 07:40:00,48.6,46.7,30.17,SSE,158,0.0,1.8,93,0.00,,,0.00,WUHU216HW,2013-03-12 14:40:00,
2013-03-12 07:45:00,48.6,46.7,30.17,SSE,158,0.0,1.6,93,0.00,,,0.00,WUHU216HW,2013-03-12 14:45:00,
2013-03-12 07:50:00,48.6,46.7,30.17,SE,135,1.1,1.3,93,0.00,,,0.00,WUHU216HW,2013-03-12 14:50:00,
2013-03-12 07:55:00,48.8,46.9,30.17,SE,135,1.1,1.8,93,0.00,,,0.00,WUHU216HW,2013-03-12 14:55:00,
2013-03-12 08:00:00,48.8,46.9,30.17,SSE,158,1.8,3.4,93,0.00,,,0.00,WUHU216HW,2013-03-12 15:00:00,
2013-03-12 08:05:00,48.8,46.9,30.17,South,180,0.4,3.4,93,0.00,,,0.00,WUHU216HW,2013-03-12 15:05:00,
2013-03-12 08:10:00,49.0,46.7,30.17,SSE,158,2.2,2.9,92,0.00,,,0.00,WUHU216HW,2013-03-12 15:10:00,
2013-03-12 08:15:00,48.8,46.6,30.17,SSE,158,1.8,2.9,92,0.00,,,0.00,WUHU216HW,2013-03-12 15:15:00,
2013-03-12 08:20:00,48.8,46.6,30.17,SE,135,2.9,3.6,92,0.00,,,0.00,WUHU216HW,2013-03-12 15:20:00,
2013-03-12 08:25:00,49.0,46.7,30.17,South,180,2.9,4.5,92,0.00,,,0.00,WUHU216HW,2013-03-12 15:25:00,
2013-03-12 08:30:00,49.0,46.7,30.17,SW,225,1.1,4.5,92,0.00,,,0.00,WUHU216HW,2013-03-12 15:30:00,
2013-03-12 08:35:00,49.1,46.9,30.17,South,180,1.6,4.0,92,0.00,,,0.00,WUHU216HW,2013-03-12 15:35:00,
2013-03-12 08:40:00,49.1,46.9,30.18,South,180,3.8,4.0,92,0.00,,,0.00,WUHU216HW,2013-03-12 15:40:00,
2013-03-12 08:45:00,49.3,47.1,30.18,SSW,203,3.8,4.3,92,0.00,,,0.00,WUHU216HW,2013-03-12 15:45:00,
2013-03-12 08:50:00,49.3,47.1,30.18,SSE,158,4.7,4.7,92,0.00,,,0.00,WUHU216HW,2013-03-12 15:50:00,
2013-03-12 08:55:00,49.5,47.3,30.18,SE,135,4.0,4.7,92,0.00,,,0.00,WUHU216HW,2013-03-12 15:55:00,
2013-03-12 09:00:00,49.7,47.4,30.18,South,180,3.4,4.7,92,0.00,,,0.00,WUHU216HW,2013-03-12 16:00:00,
2013-03-12 09:05:00,50.0,47.7,30.18,SSE,158,2.9,4.7,92,0.00,,,0.00,WUHU216HW,2013-03-12 16:05:00,
2013-03-12 09:10:00,50.2,47.6,30.18,South,180,2.5,5.4,91,0.00,,,0.00,WUHU216HW,2013-03-12 16:10:00,
2013-03-12 09:15:00,50.2,47.6,30.18,South,180,2.9,5.4,91,0.00,,,0.00,WUHU216HW,2013-03-12 16:15:00,
2013-03-12 09:20:00,50.4,47.8,30.18,SSE,158,3.6,4.7,91,0.00,,,0.00,WUHU216HW,2013-03-12 16:20:00,
2013-03-12 09:25:00,50.6,48.0,30.19,SSE,158,3.8,4.7,91,0.00,,,0.00,WUHU216HW,2013-03-12 16:25:00,
2013-03-12 09:30:00,50.8,48.2,30.19,SSW,203,2.5,5.8,91,0.00,,,0.00,WUHU216HW,2013-03-12 16:30:00,
2013-03-12 09:35:00,50.8,48.2,30.19,SE,135,2.5,5.8,91,0.00,,,0.00,WUHU216HW,2013-03-12 16:35:00,
2013-03-12 09:40:00,51.1,48.2,30.19,SSE,158,1.6,6.0,90,0.00,,,0.00,WUHU216HW,2013-03-12 16:40:00,
2013-03-12 09:45:00,51.3,48.4,30.19,South,180,3.4,6.0,90,0.00,,,0.00,WUHU216HW,2013-03-12 16:45:00,
2013-03-12 09:50:00,51.5,48.6,30.19,South,180,4.7,6.9,90,0.00,,,0.00,WUHU216HW,2013-03-12 16:50:00,
2013-03-12 09:55:00,51.8,49.0,30.19,SSW,203,4.7,6.9,90,0.00,,,0.00,WUHU216HW,2013-03-12 16:55:00,
2013-03-12 10:00:00,52.2,49.1,30.18,South,180,3.4,6.3,89,0.00,,,0.00,WUHU216HW,2013-03-12 17:00:00,
2013-03-12 10:05:00,52.4,49.2,30.18,SSW,203,4.5,6.9,89,0.00,,,0.00,WUHU216HW,2013-03-12 17:05:00,
2013-03-12 10:10:00,52.6,49.1,30.19,SSW,203,1.8,6.9,88,0.00,,,0.00,WUHU216HW,2013-03-12 17:10:00,
2013-03-12 10:15:00,52.7,49.2,30.19,SSW,203,4.3,5.4,88,0.00,,,0.00,WUHU216HW,2013-03-12 17:15:00,
2013-03-12 10:20:00,52.9,49.2,30.19,SSE,158,3.1,6.7,87,0.00,,,0.00,WUHU216HW,2013-03-12 17:20:00,
2013-03-12 10:25:00,52.9,49.2,30.19,SSE,158,2.5,6.7,87,0.00,,,0.00,WUHU216HW,2013-03-12 17:25:00,
2013-03-12 10:30:00,53.3,49.5,30.19,SSW,203,2.5,5.4,87,0.00,,,0.00,WUHU216HW,2013-03-12 17:30:00,
2013-03-12 10:35:00,53.5,49.7,30.19,SSW,203,2.7,5.4,87,0.00,,,0.00,WUHU216HW,2013-03-12 17:35:00,
2013-03-12 10:40:00,53.6,49.9,30.19,SSW,203,4.5,5.6,87,0.00,,,0.00,WUHU216HW,2013-03-12 17:40:00,
2013-03-12 10:45:00,53.8,49.7,30.19,South,180,3.1,5.6,86,0.00,,,0.00,WUHU216HW,2013-03-12 17:45:00,
2013-03-12 10:50:00,54.0,49.6,30.19,SSW,203,3.4,6.0,85,0.00,,,0.00,WUHU216HW,2013-03-12 17:50:00,
2013-03-12 10:55:00,54.4,50.2,30.20,SSW,203,2.2,6.0,86,0.00,,,0.00,WUHU216HW,2013-03-12 17:55:00,
2013-03-12 11:00:00,54.9,50.4,30.20,SSW,203,4.7,4.7,85,0.00,,,0.00,WUHU216HW,2013-03-12 18:00:00,
2013-03-12 11:05:00,55.3,50.5,30.20,SSW,203,5.1,6.9,84,0.00,,,0.00,WUHU216HW,2013-03-12 18:05:00,
2013-03-12 11:10:00,55.6,49.9,30.19,South,180,2.0,6.9,81,0.00,,,0.00,WUHU216HW,2013-03-12 18:10:00,
2013-03-12 11:15:00,56.0,50.2,30.20,SW,225,2.5,7.2,81,0.00,,,0.00,WUHU216HW,2013-03-12 18:15:00,
2013-03-12 11:20:00,56.3,50.6,30.20,South,180,3.4,8.5,81,0.00,,,0.00,WUHU216HW,2013-03-12 18:20:00,
2013-03-12 11:25:00,56.5,50.8,30.19,SSE,158,3.6,8.5,81,0.00,,,0.00,WUHU216HW,2013-03-12 18:25:00,
2013-03-12 11:30:00,57.2,50.4,30.20,South,180,4.5,6.7,78,0.00,,,0.00,WUHU216HW,2013-03-12 18:30:00,
2013-03-12 11:35:00,57.8,51.3,30.19,SSW,203,4.3,8.1,79,0.00,,,0.00,WUHU216HW,2013-03-12 18:35:00,
2013-03-12 11:40:00,58.1,50.6,30.19,South,180,2.9,8.1,76,0.00,,,0.00,WUHU216HW,2013-03-12 18:40:00,
2013-03-12 11:45:00,58.1,50.2,30.20,SSE,158,3.4,4.9,75,0.00,,,0.00,WUHU216HW,2013-03-12 18:45:00,
2013-03-12 11:50:00,58.3,50.4,30.20,SSE,158,2.2,6.9,75,0.00,,,0.00,WUHU216HW,2013-03-12 18:50:00,
2013-03-12 11:55:00,58.7,50.0,30.20,South,180,6.9,10.1,73,0.00,,,0.00,WUHU216HW,2013-03-12 18:55:00,
2013-03-12 12:00:00,58.7,49.7,30.20,SSE,158,6.9,10.1,72,0.00,,,0.00,WUHU216HW,2013-03-12 19:00:00,
2013-03-12 12:05:00,58.9,50.2,30.20,SSW,203,4.0,6.9,73,0.00,,,0.00,WUHU216HW,2013-03-12 19:05:00,
2013-03-12 12:10:00,59.4,50.4,30.20,SSE,158,4.3,7.4,72,0.00,,,0.00,WUHU216HW,2013-03-12 19:10:00,
2013-03-12 12:15:00,59.2,49.9,30.20,SSE,158,5.1,9.4,71,0.00,,,0.00,WUHU216HW,2013-03-12 19:15:00,
2013-03-12 12:20:00,59.4,50.4,30.20,SSW,203,6.3,9.4,72,0.00,,,0.00,WUHU216HW,2013-03-12 19:20:00,
2013-03-12 12:25:00,59.4,50.4,30.20,SW,225,6.0,8.5,72,0.00,,,0.00,WUHU216HW,2013-03-12 19:25:00,
2013-03-12 12:30:00,59.4,50.8,30.19,SSW,203,3.4,9.4,73,0.00,,,0.00,WUHU216HW,2013-03-12 19:30:00,
2013-03-12 12:35:00,59.8,50.0,30.19,SSE,158,6.3,9.4,70,0.00,,,0.00,WUHU216HW,2013-03-12 19:35:00,
2013-03-12 12:40:00,60.1,51.1,30.19,SSW,203,2.2,7.8,72,0.00,,,0.00,WUHU216HW,2013-03-12 19:40:00,
2013-03-12 12:45:00,60.7,51.3,30.19,South,180,4.9,6.9,71,0.00,,,0.00,WUHU216HW,2013-03-12 19:45:00,
2013-03-12 12:50:00,60.8,50.3,30.18,SSE,158,5.4,8.7,68,0.00,,,0.00,WUHU216HW,2013-03-12 19:50:00,
2013-03-12 12:55:00,60.8,50.3,30.19,SSE,158,5.1,8.7,68,0.00,,,0.00,WUHU216HW,2013-03-12 19:55:00,
2013-03-12 13:00:00,61.0,50.0,30.19,SSE,158,2.7,8.5,67,0.00,,,0.00,WUHU216HW,2013-03-12 20:00:00,
2013-03-12 13:05:00,61.2,50.6,30.19,SSW,203,4.7,8.5,68,0.00,,,0.00,WUHU216HW,2013-03-12 20:05:00,
2013-03-12 13:10:00,62.1,51.4,30.19,South,180,4.7,6.9,68,0.00,,,0.00,WUHU216HW,2013-03-12 20:10:00,
2013-03-12 13:15:00,62.5,51.0,30.19,SW,225,4.0,6.9,66,0.00,,,0.00,WUHU216HW,2013-03-12 20:15:00,
2013-03-12 13:20:00,61.4,49.5,30.19,SSE,158,5.1,6.7,65,0.00,,,0.00,WUHU216HW,2013-03-12 20:20:00,
2013-03-12 13:25:00,60.7,49.3,30.18,SE,135,5.6,7.8,66,0.00,,,0.00,WUHU216HW,2013-03-12 20:25:00,
2013-03-12 13:30:00,60.1,49.1,30.18,SSW,203,4.7,8.5,67,0.00,,,0.00,WUHU216HW,2013-03-12 20:30:00,
2013-03-12 13:35:00,60.1,49.1,30.18,WSW,248,4.7,8.5,67,0.00,,,0.00,WUHU216HW,2013-03-12 20:35:00,
2013-03-12 13:40:00,60.3,49.3,30.18,South,180,4.9,7.6,67,0.00,,,0.00,WUHU216HW,2013-03-12 20:40:00,
2013-03-12 13:45:00,60.3,49.3,30.18,SSW,203,2.2,7.6,67,0.00,,,0.00,WUHU216HW,2013-03-12 20:45:00,
2013-03-12 13:50:00,60.1,49.1,30.18,South,180,2.5,5.8,67,0.00,,,0.00,WUHU216HW,2013-03-12 20:50:00,
2013-03-12 13:55:00,59.9,49.0,30.18,SSW,203,6.9,6.9,67,0.00,,,0.00,WUHU216HW,2013-03-12 20:55:00,
2013-03-12 14:00:00,59.9,49.4,30.18,SSW,203,3.1,7.6,68,0.00,,,0.00,WUHU216HW,2013-03-12 21:00:00,
2013-03-12 14:05:00,59.9,49.8,30.18,SW,225,2.7,7.6,69,0.00,,,0.00,WUHU216HW,2013-03-12 21:05:00,
2013-03-12 14:10:00,60.1,49.1,30.18,SSE,158,6.3,7.6,67,0.00,,,0.00,WUHU216HW,2013-03-12 21:10:00,
2013-03-12 14:15:00,59.9,49.4,30.18,SW,225,1.1,9.2,68,0.00,,,0.00,WUHU216HW,2013-03-12 21:15:00,
2013-03-12 14:20:00,60.1,49.6,30.18,South,180,3.6,9.2,68,0.00,,,0.00,WUHU216HW,2013-03-12 21:20:00,
2013-03-12 14:25:00,60.5,48.7,30.18,WSW,248,4.0,6.7,65,0.00,,,0.00,WUHU216HW,2013-03-12 21:25:00,
2013-03-12 14:30:00,60.3,48.5,30.17,South,180,6.3,8.9,65,0.00,,,0.00,WUHU216HW,2013-03-12 21:30:00,
2013-03-12 14:35:00,60.3,48.5,30.17,SSE,158,5.8,8.9,65,0.00,,,0.00,WUHU216HW,2013-03-12 21:35:00,
2013-03-12 14:40:00,60.8,49.5,30.17,SW,225,1.6,6.3,66,0.00,,,0.00,WUHU216HW,2013-03-12 21:40:00,
2013-03-12 14:45:00,61.4,49.5,30.17,SSE,158,2.9,5.6,65,0.00,,,0.00,WUHU216HW,2013-03-12 21:45:00,
2013-03-12 14:50:00,61.7,50.3,30.16,WSW,248,2.5,6.9,66,0.00,,,0.00,WUHU216HW,2013-03-12 21:50:00,
2013-03-12 14:55:00,61.9,49.2,30.16,South,180,4.0,6.9,63,0.00,,,0.00,WUHU216HW,2013-03-12 21:55:00,
2013-03-12 15:00:00,61.6,49.7,30.16,WSW,248,2.9,6.9,65,0.00,,,0.00,WUHU216HW,2013-03-12 22:00:00,
2013-03-12 15:05:00,61.6,49.7,30.16,WSW,248,4.3,6.7,65,0.00,,,0.00,WUHU216HW,2013-03-12 22:05:00,
2013-03-12 15:10:00,61.6,49.7,30.16,WSW,248,2.9,6.3,65,0.00,,,0.00,WUHU216HW,2013-03-12 22:10:00,
2013-03-12 15:15:00,61.7,49.4,30.16,West,270,4.3,6.3,64,0.00,,,0.00,WUHU216HW,2013-03-12 22:15:00,
2013-03-12 15:20:00,61.6,49.7,30.16,SSE,158,3.6,6.3,65,0.00,,,0.00,WUHU216HW,2013-03-12 22:20:00,
2013-03-12 15:25:00,61.4,49.2,30.16,South,180,3.8,8.1,64,0.00,,,0.00,WUHU216HW,2013-03-12 22:25:00,
2013-03-12 15:30:00,61.2,49.4,30.16,SSW,203,2.7,8.1,65,0.00,,,0.00,WUHU216HW,2013-03-12 22:30:00,
2013-03-12 15:35:00,61.4,49.2,30.16,SSW,203,4.0,7.4,64,0.00,,,0.00,WUHU216HW,2013-03-12 22:35:00,
2013-03-12 15:40:00,61.4,49.5,30.17,South,180,2.7,7.4,65,0.00,,,0.00,WUHU216HW,2013-03-12 22:40:00,
2013-03-12 15:45:00,61.6,49.7,30.17,WSW,248,2.5,6.3,65,0.00,,,0.00,WUHU216HW,2013-03-12 22:45:00,
2013-03-12 15:50:00,61.7,49.4,30.17,SSW,203,2.5,7.2,64,0.00,,,0.00,WUHU216HW,2013-03-12 22:50:00,
2013-03-12 15:55:00,61.9,49.2,30.16,WSW,248,2.9,7.2,63,0.00,,,0.00,WUHU216HW,2013-03-12 22:55:00,
2013-03-12 16:00:00,62.3,49.5,30.16,SW,225,2.5,6.9,63,0.00,,,0.00,WUHU216HW,2013-03-12 23:00:00,
2013-03-12 16:05:00,62.3,48.7,30.16,SW,225,4.0,6.7,61,0.00,,,0.00,WUHU216HW,2013-03-12 23:05:00,
2013-03-12 16:10:00,62.5,49.7,30.15,SSW,203,5.6,6.3,63,0.00,,,0.00,WUHU216HW,2013-03-12 23:10:00,
2013-03-12 16:15:00,62.5,48.9,30.15,SSE,158,4.3,6.3,61,0.00,,,0.00,WUHU216HW,2013-03-12 23:15:00,
2013-03-12 16:20:00,62.1,48.5,30.15,WSW,248,5.4,7.6,61,0.00,,,0.00,WUHU216HW,2013-03-12 23:20:00,
2013-03-12 16:25:00,62.1,49.3,30.15,SW,225,2.0,7.6,63,0.00,,,0.00,WUHU216HW,2013-03-12 23:25:00,
2013-03-12 16:30:00,62.1,49.0,30.16,South,180,3.8,5.4,62,0.00,,,0.00,WUHU216HW,2013-03-12 23:30:00,
2013-03-12 16:35:00,61.9,48.8,30.15,SW,225,4.5,5.4,62,0.00,,,0.00,WUHU216HW,2013-03-12 23:35:00,
2013-03-12 16:40:00,61.7,49.1,30.15,SSE,158,3.1,5.4,63,0.00,,,0.00,WUHU216HW,2013-03-12 23:40:00,
2013-03-12 16:45:00,61.6,48.4,30.15,SSE,158,2.5,5.4,62,0.00,,,0.00,WUHU216HW,2013-03-12 23:45:00,
2013-03-12 16:50:00,61.6,48.9,30.15,SSW,203,4.0,8.1,63,0.00,,,0.00,WUHU216HW,2013-03-12 23:50:00,
2013-03-12 16:55:00,61.7,48.6,30.15,WSW,248,2.5,8.1,62,0.00,,,0.00,WUHU216HW,2013-03-12 23:55:00,
2013-03-12 17:00:00,61.6,47.6,30.15,SSE,158,4.7,6.3,60,0.00,,,0.00,WUHU216HW,2013-03-13 00:00:00,
2013-03-12 17:05:00,61.2,48.2,30.15,South,180,1.3,7.6,62,0.00,,,0.00,WUHU216HW,2013-03-13 00:05:00,
2013-03-12 17:10:00,61.4,48.3,30.15,South,180,6.0,7.6,62,0.00,,,0.00,WUHU216HW,2013-03-13 00:10:00,
2013-03-12 17:15:00,61.4,47.9,30.15,SSW,203,1.8,9.6,61,0.00,,,0.00,WUHU216HW,2013-03-13 00:15:00,
2013-03-12 17:20:00,61.6,48.4,30.15,SW,225,2.9,9.6,62,0.00,,,0.00,WUHU216HW,2013-03-13 00:20:00,
2013-03-12 17:25:00,61.4,47.4,30.15,South,180,3.1,7.2,60,0.00,,,0.00,WUHU216HW,2013-03-13 00:25:00,
2013-03-12 17:30:00,61.4,47.9,30.15,South,180,2.5,7.2,61,0.00,,,0.00,WUHU216HW,2013-03-13 00:30:00,
2013-03-12 17:35:00,61.2,47.7,30.15,SSW,203,0.4,7.2,61,0.00,,,0.00,WUHU216HW,2013-03-13 00:35:00,
2013-03-12 17:40:00,61.0,47.5,30.14,SW,225,2.7,7.2,61,0.00,,,0.00,WUHU216HW,2013-03-13 00:40:00,
2013-03-12 17:45:00,60.8,47.8,30.14,SSW,203,4.0,5.8,62,0.00,,,0.00,WUHU216HW,2013-03-13 00:45:00,
2013-03-12 17:50:00,60.7,47.6,30.14,SSW,203,1.1,4.0,62,0.00,,,0.00,WUHU216HW,2013-03-13 00:50:00,
2013-03-12 17:55:00,60.7,47.6,30.14,SSW,203,1.1,4.0,62,0.00,,,0.00,WUHU216HW,2013-03-13 00:55:00,
2013-03-12 18:00:00,60.5,47.9,30.14,SE,135,0.7,4.0,63,0.00,,,0.00,WUHU216HW,2013-03-13 01:00:00,
2013-03-12 18:05:00,60.3,48.1,30.14,SW,225,1.6,5.1,64,0.00,,,0.00,WUHU216HW,2013-03-13 01:05:00,
2013-03-12 18:10:00,60.3,47.3,30.13,South,180,2.9,5.1,62,0.00,,,0.00,WUHU216HW,2013-03-13 01:10:00,
2013-03-12 18:15:00,60.1,47.1,30.14,SW,225,4.3,5.1,62,0.00,,,0.00,WUHU216HW,2013-03-13 01:15:00,
2013-03-12 18:20:00,59.9,47.4,30.14,SSW,203,1.6,5.1,63,0.00,,,0.00,WUHU216HW,2013-03-13 01:20:00,
2013-03-12 18:25:00,59.8,46.7,30.14,SSW,203,0.4,4.3,62,0.00,,,0.00,WUHU216HW,2013-03-13 01:25:00,
2013-03-12 18:30:00,59.8,46.7,30.14,SW,225,0.0,2.5,62,0.00,,,0.00,WUHU216HW,2013-03-13 01:30:00,
2013-03-12 18:35:00,59.8,46.7,30.15,WSW,248,0.0,2.0,62,0.00,,,0.00,WUHU216HW,2013-03-13 01:35:00,
2013-03-12 18:40:00,59.6,46.5,30.15,SSW,203,1.8,2.0,62,0.00,,,0.00,WUHU216HW,2013-03-13 01:40:00,
2013-03-12 18:45:00,59.4,46.8,30.15,SW,225,1.3,1.8,63,0.00,,,0.00,WUHU216HW,2013-03-13 01:45:00,
2013-03-12 18:50:00,59.2,46.2,30.15,SSW,203,0.7,2.5,62,0.00,,,0.00,WUHU216HW,2013-03-13 01:50:00,
2013-03-12 18:55:00,59.0,46.5,30.15,SW,225,0.0,2.5,63,0.00,,,0.00,WUHU216HW,2013-03-13 01:55:00,
2013-03-12 19:00:00,59.0,46.5,30.15,SSW,203,0.4,1.8,63,0.00,,,0.00,WUHU216HW,2013-03-13 02:00:00,
2013-03-12 19:05:00,58.9,46.3,30.15,South,180,1.1,1.3,63,0.00,,,0.00,WUHU216HW,2013-03-13 02:05:00,
2013-03-12 19:10:00,58.7,46.5,30.15,SW,225,0.9,1.6,64,0.00,,,0.00,WUHU216HW,2013-03-13 02:10:00,
2013-03-12 19:15:00,58.3,46.2,30.15,WSW,248,0.9,1.8,64,0.00,,,0.00,WUHU216HW,2013-03-13 02:15:00,
2013-03-12 19:20:00,58.3,46.2,30.16,SSW,203,0.4,1.8,64,0.00,,,0.00,WUHU216HW,2013-03-13 02:20:00,
2013-03-12 19:25:00,58.0,45.8,30.16,WSW,248,2.5,7.4,64,0.00,,,0.00,WUHU216HW,2013-03-13 02:25:00,
2013-03-12 19:30:00,58.0,46.3,30.16,WSW,248,1.1,7.4,65,0.00,,,0.00,WUHU216HW,2013-03-13 02:30:00,
2013-03-12 19:35:00,57.6,46.3,30.16,West,270,0.7,5.4,66,0.00,,,0.00,WUHU216HW,2013-03-13 02:35:00,
2013-03-12 19:40:00,57.4,46.5,30.16,West,270,2.7,4.3,67,0.00,,,0.00,WUHU216HW,2013-03-13 02:40:00,
2013-03-12 19:45:00,57.2,46.7,30.16,West,270,5.8,6.3,68,0.00,,,0.00,WUHU216HW,2013-03-13 02:45:00,
2013-03-12 19:50:00,56.9,46.5,30.16,West,270,0.4,6.3,68,0.00,,,0.00,WUHU216HW,2013-03-13 02:50:00,
2013-03-12 19:55:00,56.7,46.6,30.16,WNW,293,4.7,5.8,69,0.00,,,0.00,WUHU216HW,2013-03-13 02:55:00,
2013-03-12 20:00:00,56.3,46.7,30.17,WNW,293,4.0,4.7,70,0.00,,,0.00,WUHU216HW,2013-03-13 03:00:00,
2013-03-12 20:05:00,56.0,46.4,30.17,West,270,2.5,4.7,70,0.00,,,0.00,WUHU216HW,2013-03-13 03:05:00,
2013-03-12 20:10:00,55.8,46.5,30.16,WSW,248,2.0,5.1,71,0.00,,,0.00,WUHU216HW,2013-03-13 03:10:00,
2013-03-12 20:15:00,55.6,47.1,30.17,WSW,248,2.5,6.3,73,0.00,,,0.00,WUHU216HW,2013-03-13 03:15:00,
2013-03-12 20:20:00,55.4,46.6,30.17,WNW,293,4.0,6.3,72,0.00,,,0.00,WUHU216HW,2013-03-13 03:20:00,
2013-03-12 20:25:00,55.4,46.6,30.17,West,270,4.0,6.3,72,0.00,,,0.00,WUHU216HW,2013-03-13 03:25:00,
2013-03-12 20:30:00,55.3,46.5,30.17,WSW,248,4.9,6.3,72,0.00,,,0.00,WUHU216HW,2013-03-13 03:30:00,
2013-03-12 20:35:00,55.3,46.5,30.18,WNW,293,2.5,6.0,72,0.00,,,0.00,WUHU216HW,2013-03-13 03:35:00,
2013-03-12 20:40:00,55.1,46.6,30.18,WNW,293,5.4,6.0,73,0.00,,,0.00,WUHU216HW,2013-03-13 03:40:00,
2013-03-12 20:45:00,54.9,46.5,30.18,WSW,248,0.4,5.6,73,0.00,,,0.00,WUHU216HW,2013-03-13 03:45:00,
2013-03-12 20:50:00,54.7,46.3,30.18,SSW,203,0.4,5.6,73,0.00,,,0.00,WUHU216HW,2013-03-13 03:50:00,
2013-03-12 20:55:00,54.5,46.1,30.18,WNW,293,2.5,4.3,73,0.00,,,0.00,WUHU216HW,2013-03-13 03:55:00,
2013-03-12 21:00:00,54.5,46.1,30.18,WNW,293,2.9,5.1,73,0.00,,,0.00,WUHU216HW,2013-03-13 04:00:00,
2013-03-12 21:05:00,54.4,45.9,30.19,SSW,203,1.1,5.1,73,0.00,,,0.00,WUHU216HW,2013-03-13 04:05:00,
2013-03-12 21:10:00,54.4,45.9,30.19,WNW,293,2.2,4.0,73,0.00,,,0.00,WUHU216HW,2013-03-13 04:10:00,
2013-03-12 21:15:00,54.4,45.9,30.18,West,270,1.8,4.0,73,0.00,,,0.00,WUHU216HW,2013-03-13 04:15:00,
2013-03-12 21:20:00,54.2,45.7,30.18,WSW,248,0.4,3.4,73,0.00,,,0.00,WUHU216HW,2013-03-13 04:20:00,
2013-03-12 21:25:00,54.0,45.6,30.18,West,270,0.4,3.6,73,0.00,,,0.00,WUHU216HW,2013-03-13 04:25:00,
2013-03-12 21:30:00,54.0,45.6,30.18,West,270,0.9,3.6,73,0.00,,,0.00,WUHU216HW,2013-03-13 04:30:00,
2013-03-12 21:35:00,53.8,45.4,30.18,West,270,2.5,2.5,73,0.00,,,0.00,WUHU216HW,2013-03-13 04:35:00,
2013-03-12 21:40:00,53.6,45.2,30.18,SW,225,0.2,2.5,73,0.00,,,0.00,WUHU216HW,2013-03-13 04:40:00,
2013-03-12 21:45:00,53.5,45.4,30.18,SW,225,0.0,2.5,74,0.00,,,0.00,WUHU216HW,2013-03-13 04:45:00,
2013-03-12 21:50:00,53.3,44.8,30.18,SW,225,0.4,0.9,73,0.00,,,0.00,WUHU216HW,2013-03-13 04:50:00,
2013-03-12 21:55:00,53.1,44.6,30.18,WSW,248,1.8,1.8,73,0.00,,,0.00,WUHU216HW,2013-03-13 04:55:00,
2013-03-12 22:00:00,52.9,44.6,30.18,WSW,248,0.7,2.7,73,0.00,,,0.00,WUHU216HW,2013-03-13 05:00:00,
2013-03-12 22:05:00,52.9,44.8,30.19,NW,315,0.0,3.8,74,0.00,,,0.00,WUHU216HW,2013-03-13 05:05:00,
2013-03-12 22:10:00,52.9,44.8,30.19,SW,225,0.0,3.8,74,0.00,,,0.00,WUHU216HW,2013-03-13 05:10:00,
2013-03-12 22:15:00,52.9,44.8,30.18,WNW,293,0.0,1.3,74,0.00,,,0.00,WUHU216HW,2013-03-13 05:15:00,
2013-03-12 22:20:00,52.9,44.8,30.18,SW,225,0.0,2.0,74,0.00,,,0.00,WUHU216HW,2013-03-13 05:20:00,
2013-03-12 22:25:00,52.7,44.7,30.18,SW,225,0.7,2.0,74,0.00,,,0.00,WUHU216HW,2013-03-13 05:25:00,
2013-03-12 22:30:00,52.7,44.7,30.19,SSW,203,1.1,2.2,74,0.00,,,0.00,WUHU216HW,2013-03-13 05:30:00,
2013-03-12 22:35:00,52.6,44.6,30.18,SSW,203,1.1,2.2,74,0.00,,,0.00,WUHU216HW,2013-03-13 05:35:00,
2013-03-12 22:40:00,52.6,44.6,30.18,SSW,203,0.4,2.5,74,0.00,,,0.00,WUHU216HW,2013-03-13 05:40:00,
2013-03-12 22:45:00,52.4,44.4,30.18,SW,225,0.9,2.5,74,0.00,,,0.00,WUHU216HW,2013-03-13 05:45:00,
2013-03-12 22:50:00,52.4,44.4,30.19,SW,225,0.2,1.8,74,0.00,,,0.00,WUHU216HW,2013-03-13 05:50:00,
2013-03-12 22:55:00,52.4,44.4,30.19,SW,225,1.1,2.5,74,0.00,,,0.00,WUHU216HW,2013-03-13 05:55:00,
2013-03-12 23:00:00,52.2,44.6,30.19,SW,225,1.3,2.5,75,0.00,,,0.00,WUHU216HW,2013-03-13 06:00:00,
2013-03-12 23:05:00,52.2,44.6,30.20,SSE,158,0.4,1.6,75,0.00,,,0.00,WUHU216HW,2013-03-13 06:05:00,
2013-03-12 23:10:00,52.2,44.6,30.19,SSW,203,0.4,1.6,75,0.00,,,0.00,WUHU216HW,2013-03-13 06:10:00,
2013-03-12 23:15:00,52.2,44.6,30.19,SSE,158,0.0,1.6,75,0.00,,,0.00,WUHU216HW,2013-03-13 06:15:00,
2013-03-12 23:20:00,52.2,44.6,30.19,SSE,158,1.1,1.3,75,0.00,,,0.00,WUHU216HW,2013-03-13 06:20:00,
2013-03-12 23:25:00,52.0,44.4,30.19,SSE,158,1.1,1.8,75,0.00,,,0.00,WUHU216HW,2013-03-13 06:25:00,
2013-03-12 23:30:00,51.8,44.2,30.19,SSE,158,0.0,1.8,75,0.00,,,0.00,WUHU216HW,2013-03-13 06:30:00,
2013-03-12 23:35:00,51.8,44.2,30.19,South,180,0.4,1.1,75,0.00,,,0.00,WUHU216HW,2013-03-13 06:35:00,
2013-03-12 23:40:00,51.7,44.4,30.19,SSE,158,0.0,1.1,76,0.00,,,0.00,WUHU216HW,2013-03-13 06:40:00,
2013-03-12 23:45:00,51.7,44.4,30.19,SSE,158,0.0,0.9,76,0.00,,,0.00,WUHU216HW,2013-03-13 06:45:00,
2013-03-12 23:50:00,51.5,44.8,30.19,SE,135,1.1,1.1,78,0.00,,,0.00,WUHU216HW,2013-03-13 06:50:00,
2013-03-12 23:55:00,51.3,44.6,30.18,SSE,158,1.1,1.1,78,0.00,,,0.00,WUHU216HW,2013-03-13 06:55:00,